Time;durP1;ratioP1;P1;durP2;ratioP2;P2;SDS_P1;SDS_P2;PMS_P1;PMS_P2;Temp;Humidity;BMP_temperature;BMP_pressure;BME280_temperature;BME280_humidity;BME280_pressure;Samples;Min_cycle;Max_cycle;Signal;HPM_P1;HPM_P2
2022/12/26 00:01:56;;;;;;;27.65;7.10;;;;;;;9.00;100.00;97512.41;5084762;28;20028;-89
2022/12/26 00:04:22;;;;;;;14.90;6.30;;;;;;;9.04;100.00;97525.03;5104435;28;20032;-88
2022/12/26 00:06:48;;;;;;;24.13;6.53;;;;;;;9.05;100.00;97518.81;5104260;28;20077;-88
2022/12/26 00:09:14;;;;;;;20.63;7.10;;;;;;;9.03;100.00;97510.34;5082911;28;20027;-87
2022/12/26 00:11:40;;;;;;;17.20;5.85;;;;;;;8.89;100.00;97510.53;5090859;28;20035;-87
2022/12/26 00:14:15;;;;;;;19.95;6.63;;;;;;;8.79;100.00;97490.16;5104200;28;20140;-87
2022/12/26 00:16:45;;;;;;;19.30;6.07;;;;;;;8.91;100.00;97492.81;5081580;28;20100;-87
2022/12/26 00:19:11;;;;;;;14.73;5.45;;;;;;;8.91;100.00;97487.56;5087646;28;20032;-89
2022/12/26 00:21:37;;;;;;;15.98;5.10;;;;;;;8.89;100.00;97494.84;5106201;28;20032;-90
2022/12/26 00:24:03;;;;;;;17.75;5.38;;;;;;;9.03;100.00;97484.19;5102928;28;20477;-89
2022/12/26 00:26:31;;;;;;;12.82;4.93;;;;;;;9.06;100.00;97489.00;5085911;28;20031;-88
2022/12/26 00:28:57;;;;;;;19.60;4.90;;;;;;;9.17;100.00;97480.38;5081871;28;20037;-88
2022/12/26 00:31:26;;;;;;;25.33;5.88;;;;;;;9.21;100.00;97481.50;5098432;28;20396;-87
2022/12/26 00:33:53;;;;;;;19.75;5.38;;;;;;;9.32;100.00;97487.00;5065368;28;20030;-88
2022/12/26 00:36:27;;;;;;;17.75;5.70;;;;;;;9.24;100.00;97475.03;5104634;28;20043;-87
2022/12/26 00:38:54;;;;;;;26.10;5.82;;;;;;;9.10;100.00;97474.44;5103355;28;20076;-88
2022/12/26 00:41:20;;;;;;;17.00;5.45;;;;;;;9.36;100.00;97469.81;5102709;28;20137;-88
2022/12/26 00:43:47;;;;;;;16.58;5.70;;;;;;;9.34;100.00;97470.06;5105436;28;20085;-88
2022/12/26 00:46:13;;;;;;;20.67;6.35;;;;;;;9.33;100.00;97465.03;5086613;28;20381;-87
2022/12/26 00:48:41;;;;;;;18.15;5.40;;;;;;;9.32;100.00;97455.59;5106799;28;20031;-86
2022/12/26 00:51:07;;;;;;;18.98;6.15;;;;;;;9.20;100.00;97448.50;5112466;28;20477;-87
2022/12/26 00:53:33;;;;;;;20.13;6.00;;;;;;;9.12;100.00;97451.44;5087286;28;20049;-88
2022/12/26 00:55:59;;;;;;;13.80;4.80;;;;;;;9.51;100.00;97464.13;5103467;28;20035;-88
2022/12/26 00:58:27;;;;;;;17.40;4.40;;;;;;;9.32;100.00;97456.38;5103682;28;20379;-86
2022/12/26 01:00:53;;;;;;;12.45;4.00;;;;;;;9.21;100.00;97438.84;5100599;28;20028;-84
2022/12/26 01:03:20;;;;;;;19.33;4.05;;;;;;;9.13;100.00;97425.03;5080972;28;20039;-86
2022/12/26 01:05:53;;;;;;;14.52;5.15;;;;;;;9.07;100.00;97427.78;5096414;28;20550;-88
2022/12/26 01:08:23;;;;;;;13.80;3.90;;;;;;;9.35;100.00;97421.91;5096399;28;20031;-87
2022/12/26 01:11:06;;;;;;;12.30;3.42;;;;;;;9.50;100.00;97426.69;5092021;28;20110;-89
2022/12/26 01:13:36;;;;;;;15.70;3.78;;;;;;;9.08;100.00;97424.13;5107645;28;20504;-88
2022/12/26 01:16:03;;;;;;;14.80;3.60;;;;;;;9.07;100.00;97407.63;5105771;28;20542;-88
2022/12/26 01:18:29;;;;;;;11.32;3.20;;;;;;;9.08;100.00;97418.91;5103250;28;20081;-89
2022/12/26 01:21:01;;;;;;;12.27;2.90;;;;;;;9.20;100.00;97416.28;5086054;28;20067;-89
2022/12/26 01:23:27;;;;;;;7.63;2.90;;;;;;;9.15;100.00;97419.59;5092166;28;20027;-89
2022/12/26 01:25:53;;;;;;;13.70;2.50;;;;;;;8.95;100.00;97406.81;5081196;28;20035;-89
2022/12/26 01:28:19;;;;;;;9.18;2.10;;;;;;;9.16;100.00;97413.31;5093505;28;20028;-89
2022/12/26 01:30:45;;;;;;;10.88;2.63;;;;;;;8.97;100.00;97425.69;5089932;28;20193;-87
2022/12/26 01:33:11;;;;;;;7.15;2.10;;;;;;;9.09;100.00;97430.97;5111683;28;20027;-89
2022/12/26 01:35:36;;;;;;;7.50;2.20;;;;;;;9.14;100.00;97420.59;5078117;28;20158;-88
2022/12/26 01:38:02;;;;;;;11.15;1.95;;;;;;;9.13;100.00;97426.88;5098069;28;20028;-86
2022/12/26 01:40:27;;;;;;;4.85;2.13;;;;;;;9.06;100.00;97406.03;5087385;28;20050;-88
2022/12/26 01:42:53;;;;;;;4.30;2.13;;;;;;;8.78;100.00;97435.41;5103632;28;20097;-88
2022/12/26 01:45:24;;;;;;;2.65;2.17;;;;;;;7.76;100.00;97456.63;5103177;28;20024;-87
2022/12/26 01:48:13;;;;;;;4.05;1.63;;;;;;;7.20;100.00;97476.56;5084488;28;20024;-85
2022/12/26 01:50:54;;;;;;;1.40;1.30;;;;;;;7.42;100.00;97469.16;5067014;28;20048;-88
2022/12/26 01:53:43;;;;;;;1.25;1.10;;;;;;;6.77;100.00;97470.19;5096640;28;20074;-86
2022/12/26 01:56:14;;;;;;;2.33;1.00;;;;;;;6.64;100.00;97503.13;5077994;28;20555;-88
2022/12/26 01:58:54;;;;;;;4.50;1.08;;;;;;;6.96;100.00;97534.50;5095807;28;20123;-88
2022/12/26 02:01:21;;;;;;;1.80;1.30;;;;;;;6.19;100.00;97552.59;5082277;28;20027;-90
2022/12/26 02:06:33;;;;;;;1.20;1.00;;;;;;;5.53;100.00;97623.44;5111411;28;20114;-88
2022/12/26 02:08:59;;;;;;;1.40;0.90;;;;;;;5.29;100.00;97624.78;5093576;28;20061;-88
2022/12/26 02:11:33;;;;;;;2.38;0.88;;;;;;;5.32;100.00;97621.00;5109893;28;20035;-89
2022/12/26 02:14:04;;;;;;;0.80;0.80;;;;;;;5.13;100.00;97623.31;5069173;28;20036;-87
2022/12/26 02:16:29;;;;;;;0.77;0.77;;;;;;;5.20;100.00;97670.16;5092690;28;20489;-88
2022/12/26 02:18:55;;;;;;;2.38;0.80;;;;;;;5.36;100.00;97708.06;5092147;28;20038;-87
2022/12/26 02:21:32;;;;;;;0.63;0.63;;;;;;;5.15;100.00;97718.34;5093095;28;20028;-90
2022/12/26 02:24:40;;;;;;;0.75;0.75;;;;;;;4.94;100.00;97705.44;5066408;28;20032;-87
2022/12/26 02:27:42;;;;;;;0.80;0.80;;;;;;;4.82;100.00;97751.97;5062291;28;20059;-87
2022/12/26 02:30:49;;;;;;;0.75;0.50;;;;;;;4.89;100.00;97749.41;5085128;28;20500;-88
2022/12/26 02:33:27;;;;;;;0.40;0.40;;;;;;;4.66;100.00;97747.84;5075700;28;20044;-87
2022/12/26 02:36:02;;;;;;;1.17;0.55;;;;;;;4.77;100.00;97769.94;5101722;28;20134;-87
2022/12/26 02:38:41;;;;;;;0.47;0.47;;;;;;;4.70;100.00;97788.06;5087386;28;20042;-90
2022/12/26 02:41:35;;;;;;;0.50;0.50;;;;;;;4.98;100.00;97818.47;5069593;28;20456;-90
2022/12/26 02:47:29;;;;;;;0.50;0.50;;;;;;;4.53;100.00;97845.50;5079375;28;20036;-88
2022/12/26 03:14:37;;;;;;;2.05;1.20;;;;;;;3.84;100.00;97942.78;5101075;28;20032;-89
2022/12/26 03:17:21;;;;;;;2.20;1.05;;;;;;;4.07;100.00;97954.88;5101708;28;20042;-88
2022/12/26 03:19:58;;;;;;;1.50;1.20;;;;;;;4.05;100.00;97949.84;5083093;28;20085;-89
2022/12/26 03:22:38;;;;;;;5.07;1.27;;;;;;;4.17;100.00;97952.00;5099840;28;20066;-88
2022/12/26 03:27:54;;;;;;;4.03;1.10;;;;;;;3.83;100.00;97962.72;5083484;28;20035;-90
2022/12/26 03:33:04;;;;;;;3.38;1.92;;;;;;;3.83;100.00;97993.06;5082168;28;20047;-88
2022/12/26 03:35:33;;;;;;;7.97;1.17;;;;;;;3.89;100.00;98001.94;5081076;28;20066;-89
2022/12/26 03:38:12;;;;;;;2.13;1.10;;;;;;;3.75;100.00;98009.53;5062916;28;20460;-87
2022/12/26 04:19:29;;;;;;;4.97;1.20;;;;;;;3.79;100.00;98142.38;5038647;28;20438;-87
2022/12/26 04:45:49;;;;;;;6.28;1.55;;;;;;;3.26;100.00;98184.50;5093255;28;20032;-89
2022/12/26 04:50:58;;;;;;;9.70;1.42;;;;;;;3.50;100.00;98201.72;5104957;28;20023;-89
2022/12/26 04:53:24;;;;;;;3.75;1.20;;;;;;;3.52;100.00;98223.13;5098936;28;20061;-88
2022/12/26 04:55:50;;;;;;;8.57;1.77;;;;;;;3.44;100.00;98197.22;5117181;28;20024;-87
2022/12/26 04:58:16;;;;;;;11.73;1.92;;;;;;;3.75;100.00;98245.75;5100255;28;20554;-87
2022/12/26 05:00:42;;;;;;;11.55;1.73;;;;;;;3.65;100.00;98245.13;5118856;28;20032;-89
2022/12/26 05:11:30;;;;;;;8.05;1.85;;;;;;;3.25;100.00;98235.56;5100046;28;20092;-87
2022/12/26 05:13:57;;;;;;;8.48;2.00;;;;;;;3.46;100.00;98241.97;5082833;28;20084;-88
2022/12/26 05:30:23;;;;;;;8.10;1.60;;;;;;;3.19;100.00;98246.59;5079504;28;20127;-88
2022/12/26 05:35:35;;;;;;;13.15;1.50;;;;;;;3.40;100.00;98258.22;5105350;28;20031;-86
2022/12/26 05:38:02;;;;;;;14.52;2.10;;;;;;;3.34;100.00;98290.81;5084990;28;20073;-87
2022/12/26 05:40:28;;;;;;;6.10;1.90;;;;;;;3.19;100.00;98267.34;5103661;28;20118;-88
2022/12/26 05:42:54;;;;;;;11.23;2.47;;;;;;;3.30;100.00;98263.59;5078407;28;20028;-89
2022/12/26 05:45:20;;;;;;;4.30;1.63;;;;;;;3.53;100.00;98312.97;5061415;28;20393;-88
2022/12/26 05:47:45;;;;;;;6.10;1.90;;;;;;;3.53;100.00;98289.59;5061678;28;20036;-89
2022/12/26 05:50:11;;;;;;;10.25;2.53;;;;;;;3.42;100.00;98308.16;5063327;28;20046;-89
2022/12/26 05:52:36;;;;;;;11.07;2.00;;;;;;;3.63;100.00;98315.38;5063991;28;20097;-88
2022/12/26 05:55:03;;;;;;;9.45;1.63;;;;;;;3.59;100.00;98313.28;5080976;28;20477;-88
2022/12/26 05:57:28;;;;;;;8.27;1.63;;;;;;;2.93;100.00;98270.94;5083621;28;20031;-89
2022/12/26 05:59:54;;;;;;;8.82;2.15;;;;;;;3.61;100.00;98327.69;5083114;28;20032;-88
2022/12/26 06:02:20;;;;;;;13.43;2.00;;;;;;;3.33;100.00;98283.19;5065075;28;20035;-90
2022/12/26 06:04:45;;;;;;;8.05;1.83;;;;;;;3.37;100.00;98280.09;5076107;28;20024;-88
2022/12/26 06:07:11;;;;;;;10.45;2.40;;;;;;;3.23;100.00;98315.31;5123844;27;20038;-88
2022/12/26 06:09:38;;;;;;;11.43;2.00;;;;;;;3.18;100.00;98283.06;5094179;28;20092;-87
2022/12/26 06:12:04;;;;;;;6.40;1.90;;;;;;;3.51;100.00;98332.28;5113775;28;20035;-87
2022/12/26 06:14:29;;;;;;;7.13;1.95;;;;;;;3.40;100.00;98317.88;5112508;28;20042;-85
2022/12/26 06:16:55;;;;;;;9.48;2.00;;;;;;;3.64;100.00;98336.94;5078248;28;20122;-88
2022/12/26 06:19:21;;;;;;;17.92;2.55;;;;;;;3.57;100.00;98323.81;5075812;28;20128;-88
2022/12/26 06:21:46;;;;;;;8.68;2.83;;;;;;;3.69;100.00;98345.03;5126526;27;20043;-89
2022/12/26 06:24:12;;;;;;;12.55;3.47;;;;;;;3.51;100.00;98345.25;5108648;28;20066;-89
2022/12/26 06:26:39;;;;;;;17.65;3.58;;;;;;;3.75;100.00;98344.38;5085988;28;20031;-89
2022/12/26 06:29:04;;;;;;;17.17;3.20;;;;;;;3.79;100.00;98329.25;5085151;28;20126;-89
2022/12/26 06:31:32;;;;;;;9.68;2.70;;;;;;;3.95;100.00;98349.19;5085825;28;20052;-89
2022/12/26 06:34:00;;;;;;;9.85;2.50;;;;;;;4.02;100.00;98354.47;5082726;28;20031;-88
2022/12/26 06:36:26;;;;;;;14.10;4.30;;;;;;;3.73;100.00;98354.09;5081927;28;20061;-88
2022/12/26 06:38:52;;;;;;;20.88;6.57;;;;;;;3.96;100.00;98371.56;5084811;28;20067;-90
2022/12/26 06:41:21;;;;;;;21.92;7.25;;;;;;;3.83;100.00;98370.31;5099501;28;20043;-89
2022/12/26 06:43:47;;;;;;;25.77;7.97;;;;;;;3.95;100.00;98378.53;5086974;28;20031;-89
2022/12/26 06:46:15;;;;;;;19.13;5.85;;;;;;;4.08;100.00;98403.97;5089371;28;20032;-89
2022/12/26 06:48:42;;;;;;;14.57;4.55;;;;;;;4.00;100.00;98401.41;5083534;28;20054;-90
2022/12/26 06:51:13;;;;;;;8.93;3.85;;;;;;;4.08;100.00;98423.94;5066801;28;20063;-88
2022/12/26 06:53:39;;;;;;;13.48;3.47;;;;;;;3.88;100.00;98416.53;5099521;28;20059;-85
2022/12/26 06:56:07;;;;;;;15.48;2.22;;;;;;;3.76;100.00;98397.09;5105451;28;20113;-86
2022/12/26 06:58:34;;;;;;;13.07;2.00;;;;;;;4.05;100.00;98434.69;5105997;28;20847;-85
2022/12/26 07:01:21;;;;;;;10.32;1.90;;;;;;;4.22;100.00;98448.41;5102326;28;20030;-84
2022/12/26 07:03:48;;;;;;;6.45;1.90;;;;;;;4.06;100.00;98454.47;5102986;28;20082;-85
2022/12/26 07:06:22;;;;;;;10.60;2.00;;;;;;;3.99;100.00;98459.53;5104340;28;20385;-84
2022/12/26 07:08:48;;;;;;;11.65;1.83;;;;;;;4.05;100.00;98460.66;5106267;28;20040;-86
2022/12/26 07:11:16;;;;;;;9.55;2.22;;;;;;;3.76;100.00;98460.22;5098877;28;20028;-85
2022/12/26 07:13:42;;;;;;;13.30;1.77;;;;;;;3.86;100.00;98475.63;5085830;28;20036;-85
2022/12/26 07:16:09;;;;;;;17.70;2.55;;;;;;;3.83;100.00;98473.34;5086430;28;20682;-85
2022/12/26 07:18:35;;;;;;;13.27;2.25;;;;;;;3.80;100.00;98452.91;5117006;27;20081;-84
2022/12/26 07:21:07;;;;;;;8.88;1.50;;;;;;;3.82;100.00;98454.38;5085397;28;20036;-86
2022/12/26 07:23:33;;;;;;;10.38;1.60;;;;;;;3.90;100.00;98465.69;5101124;28;20020;-86
2022/12/26 07:25:59;;;;;;;12.38;2.78;;;;;;;3.88;100.00;98473.66;5108240;28;20042;-86
2022/12/26 07:28:24;;;;;;;8.35;1.85;;;;;;;3.79;100.00;98449.50;5106283;28;20024;-86
2022/12/26 07:30:50;;;;;;;4.55;1.55;;;;;;;3.80;100.00;98466.69;5103716;28;20446;-85
2022/12/26 07:33:16;;;;;;;9.35;2.33;;;;;;;3.75;100.00;98473.34;5108722;28;20024;-83
2022/12/26 07:35:43;;;;;;;16.45;2.55;;;;;;;3.55;100.00;98469.34;5104643;28;20081;-84
2022/12/26 07:38:10;;;;;;;10.20;2.13;;;;;;;3.66;100.00;98490.72;5070286;28;20039;-85
2022/12/26 07:40:35;;;;;;;5.97;1.92;;;;;;;3.63;100.00;98501.44;5083553;28;20027;-86
2022/12/26 07:43:01;;;;;;;6.70;1.83;;;;;;;3.57;100.00;98498.53;5103558;28;20032;-84
2022/12/26 07:45:26;;;;;;;8.10;2.33;;;;;;;3.39;100.00;98483.09;5107430;28;20416;-86
2022/12/26 07:47:53;;;;;;;6.93;1.70;;;;;;;3.47;100.00;98497.06;5104771;28;20514;-85
2022/12/26 07:50:19;;;;;;;7.18;1.73;;;;;;;3.32;100.00;98494.28;5085100;28;20073;-82
2022/12/26 07:52:46;;;;;;;8.65;2.17;;;;;;;3.23;100.00;98499.47;5106493;28;20427;-85
2022/12/26 07:55:11;;;;;;;9.93;3.10;;;;;;;3.00;100.00;98486.28;5102403;28;20036;-85
2022/12/26 07:57:37;;;;;;;13.05;2.30;;;;;;;3.06;100.00;98495.22;5085079;28;20073;-85
2022/12/26 08:00:04;;;;;;;13.07;2.15;;;;;;;2.90;100.00;98470.09;5105157;28;20047;-85
2022/12/26 08:02:29;;;;;;;6.82;1.30;;;;;;;2.73;100.00;98480.41;5083482;28;20085;-85
2022/12/26 08:04:55;;;;;;;8.35;2.10;;;;;;;2.81;100.00;98495.97;5089234;28;20027;-85
2022/12/26 08:07:21;;;;;;;12.30;2.25;;;;;;;2.73;100.00;98506.31;5066299;28;20362;-84
2022/12/26 08:09:47;;;;;;;9.02;2.22;;;;;;;2.78;100.00;98498.88;5084377;28;20035;-86
2022/12/26 08:12:13;;;;;;;7.90;2.10;;;;;;;2.89;100.00;98513.34;5102643;28;20028;-85
2022/12/26 08:14:40;;;;;;;8.85;2.00;;;;;;;2.89;100.00;98517.72;5098388;28;20389;-86
2022/12/26 08:17:06;;;;;;;9.38;2.20;;;;;;;2.92;100.00;98512.22;5099598;28;20060;-85
2022/12/26 08:19:32;;;;;;;12.38;2.60;;;;;;;3.16;100.00;98500.25;5082496;28;20508;-84
2022/12/26 08:21:58;;;;;;;14.80;2.72;;;;;;;3.34;100.00;98518.28;5081977;28;20031;-86
2022/12/26 08:24:24;;;;;;;9.75;2.25;;;;;;;3.47;100.00;98510.84;5102213;28;20052;-84
2022/12/26 08:26:49;;;;;;;12.68;2.55;;;;;;;3.96;100.00;98511.81;5082720;28;20032;-85
2022/12/26 08:29:15;;;;;;;13.40;2.72;;;;;;;3.71;100.00;98532.56;5105927;28;20496;-85
2022/12/26 08:31:44;;;;;;;11.98;2.33;;;;;;;4.04;100.00;98516.97;5102924;28;20044;-86
2022/12/26 08:34:09;;;;;;;8.43;3.08;;;;;;;3.70;100.00;98507.59;5099428;28;20075;-86
2022/12/26 08:36:35;;;;;;;8.85;2.42;;;;;;;3.97;100.00;98513.41;5079868;28;20400;-86
2022/12/26 08:39:01;;;;;;;12.10;2.65;;;;;;;4.36;100.00;98541.25;5105540;28;20037;-86
2022/12/26 08:41:27;;;;;;;10.10;2.70;;;;;;;4.28;100.00;98530.88;5082017;28;20102;-82
2022/12/26 08:43:52;;;;;;;10.23;2.20;;;;;;;3.89;100.00;98529.81;5085066;28;20028;-84
2022/12/26 08:46:20;;;;;;;11.40;2.38;;;;;;;4.23;100.00;98533.16;5101172;28;20035;-85
2022/12/26 08:48:46;;;;;;;14.70;2.25;;;;;;;4.20;100.00;98534.28;5075261;28;20031;-84
2022/12/26 08:51:15;;;;;;;15.63;3.65;;;;;;;4.31;100.00;98546.13;5103411;28;20393;-86
2022/12/26 08:53:44;;;;;;;12.55;2.25;;;;;;;4.22;100.00;98513.38;5074403;28;20032;-86
2022/12/26 08:56:15;;;;;;;15.35;2.67;;;;;;;4.27;100.00;98544.84;5084764;28;20034;-87
2022/12/26 08:58:42;;;;;;;10.32;2.20;;;;;;;4.47;100.00;98560.06;5102982;28;20028;-85
2022/12/26 09:01:11;;;;;;;12.75;2.35;;;;;;;4.12;100.00;98555.91;5104334;28;20466;-84
2022/12/26 09:03:37;;;;;;;10.45;1.88;;;;;;;4.24;100.00;98569.38;5097508;28;20024;-83
2022/12/26 09:06:04;;;;;;;7.57;1.90;;;;;;;4.39;100.00;98553.09;5100446;28;20469;-83
2022/12/26 09:08:31;;;;;;;12.70;1.88;;;;;;;4.04;100.00;98547.34;5087662;28;20111;-86
2022/12/26 09:11:12;;;;;;;11.13;2.35;;;;;;;4.18;100.00;98570.03;5105315;28;20031;-83
2022/12/26 09:13:39;;;;;;;8.45;2.67;;;;;;;4.11;100.00;98571.66;5100247;28;20028;-86
2022/12/26 09:16:15;;;;;;;4.40;1.90;;;;;;;4.24;100.00;98579.78;5098642;28;20024;-84
2022/12/26 09:18:44;;;;;;;7.28;2.10;;;;;;;4.28;100.00;98578.47;5103795;28;20031;-86
2022/12/26 09:21:12;;;;;;;9.55;2.60;;;;;;;4.42;100.00;98582.16;5064726;28;20051;-84
2022/12/26 09:23:39;;;;;;;10.18;2.72;;;;;;;4.27;100.00;98560.44;5065703;28;20504;-84
2022/12/26 09:26:18;;;;;;;3.58;2.10;;;;;;;4.48;100.00;98587.66;5086683;28;20023;-85
2022/12/26 09:28:45;;;;;;;7.25;1.90;;;;;;;4.50;100.00;98567.53;5083979;28;20048;-84
2022/12/26 09:31:17;;;;;;;8.43;1.75;;;;;;;4.31;100.00;98587.69;5085046;28;20547;-85
2022/12/26 09:33:43;;;;;;;9.45;1.90;;;;;;;4.67;100.00;98591.69;5107978;28;20092;-86
2022/12/26 09:36:12;;;;;;;7.35;1.80;;;;;;;4.47;100.00;98573.06;5088123;28;20436;-87
2022/12/26 09:38:38;;;;;;;8.73;2.10;;;;;;;4.31;100.00;98587.69;5103351;28;20031;-84
2022/12/26 09:41:22;;;;;;;6.90;1.95;;;;;;;4.64;100.00;98602.44;5104728;28;20020;-85
2022/12/26 09:43:51;;;;;;;7.05;2.03;;;;;;;4.74;100.00;98602.25;5085718;28;20110;-84
2022/12/26 09:46:30;;;;;;;11.18;2.17;;;;;;;4.57;100.00;98613.47;5089470;28;20046;-84
2022/12/26 09:49:15;;;;;;;7.97;2.95;;;;;;;4.78;100.00;98612.13;5089928;28;20031;-84
2022/12/26 09:51:47;;;;;;;9.18;2.60;;;;;;;4.30;100.00;98562.69;5088291;28;20092;-85
2022/12/26 09:54:20;;;;;;;7.75;2.13;;;;;;;4.51;100.00;98614.16;5075904;28;20028;-84
2022/12/26 09:56:47;;;;;;;15.05;1.90;;;;;;;4.60;100.00;98601.13;5086974;28;20485;-83
2022/12/26 09:59:17;;;;;;;10.73;1.98;;;;;;;4.39;100.00;98592.06;5063358;28;20126;-86
2022/12/26 10:01:43;;;;;;;7.20;2.25;;;;;;;4.74;100.00;98597.03;5106100;28;20095;-87
2022/12/26 10:04:22;;;;;;;8.25;2.42;;;;;;;4.65;100.00;98589.25;5089767;28;20392;-84
2022/12/26 10:06:56;;;;;;;12.63;3.15;;;;;;;4.97;100.00;98597.09;5092078;28;20031;-85
2022/12/26 10:09:43;;;;;;;15.55;3.70;;;;;;;5.35;100.00;98628.47;5114826;28;20035;-85
2022/12/26 10:15:44;;;;;;;4.80;2.33;;;;;;;4.48;100.00;98587.66;5092266;28;20046;-85
2022/12/26 10:18:37;;;;;;;8.45;2.92;;;;;;;4.77;100.00;98639.09;5089871;28;20363;-87
2022/12/26 10:21:15;;;;;;;9.20;2.08;;;;;;;4.85;100.00;98633.06;5105140;28;20032;-84
2022/12/26 10:23:57;;;;;;;6.35;2.20;;;;;;;5.07;100.00;98644.56;5069338;28;20034;-86
2022/12/26 10:26:28;;;;;;;10.82;2.50;;;;;;;4.81;100.00;98624.00;5073869;28;20023;-88
2022/12/26 10:29:00;;;;;;;5.35;2.20;;;;;;;4.97;100.00;98633.50;5088810;28;20019;-88
2022/12/26 10:31:29;;;;;;;7.30;2.53;;;;;;;4.65;100.00;98623.06;5083702;28;20398;-86
2022/12/26 10:34:03;;;;;;;4.25;2.15;;;;;;;5.15;100.00;98638.50;5100752;28;20027;-84
2022/12/26 10:36:36;;;;;;;8.55;2.25;;;;;;;4.81;100.00;98644.78;5105984;28;20081;-86
2022/12/26 10:39:24;;;;;;;8.40;2.10;;;;;;;4.92;100.00;98660.06;5092920;28;20294;-83
2022/12/26 10:41:54;;;;;;;6.25;2.13;;;;;;;5.06;100.00;98668.13;5093491;28;20035;-84
2022/12/26 10:44:21;;;;;;;8.40;2.15;;;;;;;4.86;100.00;98653.72;5092353;28;20024;-85
2022/12/26 10:47:08;;;;;;;7.85;2.40;;;;;;;5.00;100.00;98654.81;5099005;28;20031;-85
2022/12/26 10:49:34;;;;;;;6.60;2.30;;;;;;;4.98;100.00;98666.34;5112457;28;20407;-83
2022/12/26 10:52:01;;;;;;;12.18;2.15;;;;;;;5.42;100.00;98663.28;5076115;28;20032;-84
2022/12/26 10:54:28;;;;;;;4.22;2.42;;;;;;;5.09;100.00;98647.78;5107996;28;20027;-86
2022/12/26 10:56:58;;;;;;;8.02;1.90;;;;;;;4.70;100.00;98605.16;5109240;28;20073;-89
2022/12/26 10:59:44;;;;;;;4.82;1.70;;;;;;;5.36;100.00;98656.13;5090813;28;20031;-86
2022/12/26 11:02:32;;;;;;;6.50;1.67;;;;;;;4.96;100.00;98617.13;5065545;28;20070;-84
2022/12/26 11:05:05;;;;;;;4.10;2.30;;;;;;;5.25;100.00;98646.91;5086967;28;20194;-88
2022/12/26 11:07:38;;;;;;;7.57;1.83;;;;;;;5.29;100.00;98632.56;5101140;28;20047;-82
2022/12/26 11:10:16;;;;;;;8.38;1.92;;;;;;;5.38;100.00;98655.97;5105747;28;20371;-85
2022/12/26 11:12:49;;;;;;;7.78;1.67;;;;;;;5.18;100.00;98632.13;5074894;28;20047;-88
2022/12/26 11:15:28;;;;;;;8.00;1.85;;;;;;;4.98;100.00;98632.53;5067095;28;20102;-86
2022/12/26 11:18:24;;;;;;;4.47;1.63;;;;;;;5.26;100.00;98617.28;5103992;28;20036;-87
2022/12/26 11:20:50;;;;;;;6.18;1.77;;;;;;;4.97;100.00;98654.31;5117494;27;20446;-86
2022/12/26 11:23:21;;;;;;;6.53;2.30;;;;;;;5.42;100.00;98655.47;5102615;28;20058;-86
2022/12/26 11:25:50;;;;;;;6.32;1.70;;;;;;;5.08;100.00;98640.13;5070326;28;20469;-84
2022/12/26 11:28:33;;;;;;;5.93;2.20;;;;;;;4.95;100.00;98620.69;5112147;28;20476;-85
2022/12/26 11:31:03;;;;;;;;;;;;;;;5.39;100.00;98660.97;5078184;28;20036;-88
2022/12/26 11:33:44;;;;;;;5.55;1.70;;;;;;;4.84;100.00;98613.25;5082428;28;19916;-90
2022/12/26 11:36:13;;;;;;;6.75;2.42;;;;;;;5.37;100.00;98660.34;5068081;28;20040;-85
2022/12/26 11:39:17;;;;;;;14.57;2.15;;;;;;;4.87;100.00;98612.91;5073359;28;20036;-86
2022/12/26 11:41:47;;;;;;;4.75;1.77;;;;;;;5.01;100.00;98614.00;5085550;28;20036;-84
2022/12/26 11:44:18;;;;;;;8.30;1.75;;;;;;;5.28;100.00;98636.16;5083411;28;20373;-84
2022/12/26 11:46:49;;;;;;;4.15;2.25;;;;;;;5.59;100.00;98678.78;5101591;28;20032;-83
2022/12/26 11:49:24;;;;;;;5.53;1.85;;;;;;;5.82;100.00;98684.03;5092852;28;20043;-83
2022/12/26 11:51:52;;;;;;;3.75;1.90;;;;;;;5.16;100.00;98647.94;5106655;28;20036;-89
2022/12/26 11:54:25;;;;;;;4.63;1.73;;;;;;;5.46;100.00;98679.34;5100909;28;20034;-87
2022/12/26 11:56:59;;;;;;;6.80;1.90;;;;;;;5.46;100.00;98668.94;5069083;28;20028;-86
2022/12/26 11:59:27;;;;;;;3.10;1.75;;;;;;;4.93;100.00;98617.47;5100268;28;20032;-83
2022/12/26 12:02:30;;;;;;;8.18;2.22;;;;;;;5.77;100.00;98665.50;5089221;28;20061;-84
2022/12/26 12:05:00;;;;;;;7.43;2.00;;;;;;;5.67;100.00;98690.94;5072102;28;20423;-87
2022/12/26 12:07:42;;;;;;;11.38;2.20;;;;;;;5.27;100.00;98642.34;5107765;28;20052;-85
2022/12/26 12:10:29;;;;;;;7.78;1.90;;;;;;;5.55;100.00;98685.31;5067161;28;20050;-89
2022/12/26 12:13:21;;;;;;;8.13;2.13;;;;;;;5.05;100.00;98606.66;5085805;28;20036;-84
2022/12/26 12:16:50;;;;;;;6.18;1.60;;;;;;;5.59;100.00;98694.41;5075538;28;20556;-86
2022/12/26 12:19:39;;;;;;;8.73;1.88;;;;;;;5.51;100.00;98689.25;5071821;28;20458;-85
2022/12/26 12:22:43;;;;;;;7.85;2.08;;;;;;;5.81;100.00;98686.81;5073706;28;20028;-86
2022/12/26 12:25:34;;;;;;;4.88;1.70;;;;;;;5.99;100.00;98689.13;5087443;28;20026;-84
2022/12/26 12:28:24;;;;;;;9.45;1.95;;;;;;;5.73;100.00;98685.06;5072415;28;20460;-86
2022/12/26 12:31:19;;;;;;;7.38;1.80;;;;;;;5.42;100.00;98631.22;5067427;28;20051;-87
2022/12/26 12:34:03;;;;;;;5.63;1.88;;;;;;;5.74;100.00;98665.03;5056633;28;20047;-85
2022/12/26 12:36:43;;;;;;;5.38;1.52;;;;;;;5.90;100.00;98664.94;5065738;28;20025;-86
2022/12/26 12:39:24;;;;;;;4.93;1.73;;;;;;;5.68;100.00;98656.13;5078456;28;20066;-87
2022/12/26 12:42:03;;;;;;;8.20;1.92;;;;;;;5.39;100.00;98636.75;5080069;28;20084;-87
2022/12/26 12:44:55;;;;;;;3.83;1.75;;;;;;;5.94;100.00;98652.38;5066416;28;20058;-91
2022/12/26 12:47:48;;;;;;;5.90;1.70;;;;;;;5.91;100.00;98668.38;5082092;28;20059;-87
2022/12/26 12:50:33;;;;;;;5.68;1.80;;;;;;;5.51;100.00;98625.00;5105005;28;20032;-90
2022/12/26 12:53:25;;;;;;;7.22;2.03;;;;;;;5.50;100.00;98623.38;5089497;28;20039;-88
2022/12/26 12:56:07;;;;;;;4.43;1.50;;;;;;;5.59;100.00;98626.72;5055446;28;20545;-89
2022/12/26 12:58:50;;;;;;;6.28;1.90;;;;;;;5.60;100.00;98628.34;5081456;28;20031;-87
2022/12/26 13:01:37;;;;;;;6.95;1.60;;;;;;;5.71;100.00;98640.16;5090319;28;20119;-89
2022/12/26 13:04:25;;;;;;;4.20;1.73;;;;;;;5.65;100.00;98643.44;5077567;28;20024;-87
2022/12/26 13:06:58;;;;;;;4.78;1.77;;;;;;;5.76;100.00;98658.69;5084813;28;20024;-88
2022/12/26 13:09:35;;;;;;;9.45;2.25;;;;;;;5.86;100.00;98641.03;5085010;28;20489;-87
2022/12/26 13:12:06;;;;;;;5.78;2.20;;;;;;;5.68;100.00;98653.50;5084486;28;20535;-87
2022/12/26 13:14:38;;;;;;;4.93;2.03;;;;;;;5.70;100.00;98649.75;5093868;28;20051;-87
2022/12/26 13:17:09;;;;;;;10.43;1.95;;;;;;;5.94;100.00;98673.22;5062197;28;20095;-87
2022/12/26 13:19:43;;;;;;;7.60;1.90;;;;;;;5.79;100.00;98636.69;5066559;28;20059;-86
2022/12/26 13:22:26;;;;;;;8.98;2.10;;;;;;;5.89;100.00;98672.91;5082185;28;20132;-86
2022/12/26 13:24:58;;;;;;;7.88;2.30;;;;;;;5.68;100.00;98641.31;5064168;28;21828;-87
2022/12/26 13:27:31;;;;;;;9.27;2.33;;;;;;;5.85;100.00;98675.06;5084397;28;20039;-85
2022/12/26 13:29:56;;;;;;;9.00;1.92;;;;;;;5.78;100.00;98664.53;5084099;28;20377;-86
2022/12/26 13:32:26;;;;;;;7.80;1.90;;;;;;;5.68;100.00;98674.34;5082034;28;20043;-85
2022/12/26 13:34:55;;;;;;;5.72;2.40;;;;;;;5.72;100.00;98675.66;5103623;28;20029;-85
2022/12/26 13:37:39;;;;;;;4.40;1.83;;;;;;;5.79;100.00;98668.75;5062800;28;20078;-84
2022/12/26 13:40:27;;;;;;;4.38;3.13;;;;;;;5.82;100.00;98691.84;5057177;28;20033;-84
2022/12/26 13:46:00;;;;;;;13.40;1.88;;;;;;;5.41;100.00;98660.81;5076853;28;20039;-84
2022/12/26 13:48:26;;;;;;;7.57;1.90;;;;;;;5.76;100.00;98671.72;5080551;28;20024;-84
2022/12/26 13:50:54;;;;;;;8.40;2.15;;;;;;;5.45;100.00;98648.28;5077232;28;20037;-84
2022/12/26 13:53:37;;;;;;;7.53;2.28;;;;;;;6.03;100.00;98653.16;5081625;28;20043;-82
2022/12/26 13:56:32;;;;;;;8.65;2.00;;;;;;;5.56;100.00;98656.53;5082227;28;20028;-83
2022/12/26 13:59:12;;;;;;;4.72;1.80;;;;;;;5.76;100.00;98661.28;5080206;28;20025;-82
2022/12/26 14:02:11;;;;;;;6.57;2.35;;;;;;;5.75;100.00;98649.25;5083093;28;20024;-83
2022/12/26 14:04:47;;;;;;;6.63;1.88;;;;;;;5.55;100.00;98646.28;5081141;28;20085;-82
2022/12/26 14:07:37;;;;;;;7.32;2.28;;;;;;;5.62;100.00;98662.03;5078334;28;20501;-84
2022/12/26 14:10:20;;;;;;;5.15;2.08;;;;;;;5.72;100.00;98641.78;5080488;28;20059;-84